PAGA

Edward G Pitka Sr Airport

Galena, Alaska, USA
METAR PAGA 122156Z AUTO VRB05KT 5SM -SN OVC033 M07/M10 A2988 RMK AO2 SLP123 P0000 T10671100 FZRANO
Observed Flight Rules
Nov-12 @ 21:56 UTC (34 minutes ago) Marginal Visual Flight Rules
Wind Visibility Clouds Conditions
Variable at 5 knots 5 miles
  • Overcast at 3,300' AGL
  • Light Snow
Temperatures Readings Precipitation
Current -7°C / 19°F
Dewpoint -10°C / 14°F
Humidity 79%
Altimeter 29.88" Hg
Pressure 1012.3 hPa
Elevation 46
Current Rain 0.005
METAR PAGA 122156Z AUTO VRB05KT 5SM -SN OVC033 M07/M10 A2988 RMK AO2 SLP123 P0000 T10671100 FZRANO
Observed Flight Rules
Nov-12 @ 21:56 UTC
(34 minutes ago)
MVFR
Wind Visibility
Variable at 5 knots 5 miles
Clouds
  • Overcast at 3,300' AGL
Conditions
  • Light Snow
Temperature Dewpoint
-7°C / 19°F -10°C / 14°F
Humidity Altimeter Pressure
79% 29.88" Hg 1012.3 hPa
Current Rain
0.005